createdAt,value
2023-01-01T00:00:16.601Z,13.24
2023-01-01T00:03:21.669Z,13.21
2023-01-01T00:06:25.184Z,13.23
2023-01-01T00:09:45.303Z,13.19
2023-01-01T00:12:48.071Z,13.18
2023-01-01T00:15:52.080Z,13.16
2023-01-01T00:19:07.053Z,13.11
2023-01-01T00:22:52.145Z,13.11
2023-01-01T00:25:36.485Z,13.07
2023-01-01T00:28:39.465Z,13.02
2023-01-01T00:31:43.580Z,12.97
2023-01-01T00:34:46.275Z,12.95
2023-01-01T00:37:49.014Z,12.93
2023-01-01T00:40:51.664Z,12.92
2023-01-01T00:43:54.365Z,12.97
2023-01-01T00:46:58.383Z,12.98
2023-01-01T00:50:13.361Z,13.01
2023-01-01T00:53:16.266Z,13.11
2023-01-01T00:56:18.970Z,13.12
2023-01-01T00:59:26.891Z,13.25
2023-01-01T01:02:32.900Z,13.31
2023-01-01T01:05:37.320Z,13.34
2023-01-01T01:08:44.865Z,13.44
2023-01-01T01:11:47.834Z,13.55
2023-01-01T01:14:50.531Z,13.61
2023-01-01T01:17:54.555Z,13.66
2023-01-01T01:21:07.476Z,13.66
2023-01-01T01:24:10.953Z,13.64
2023-01-01T01:27:20.853Z,13.63
2023-01-01T01:30:23.586Z,13.62
2023-01-01T01:33:27.756Z,13.60
2023-01-01T01:36:30.826Z,13.54
2023-01-01T01:39:36.384Z,13.44
2023-01-01T01:42:39.101Z,13.41
2023-01-01T01:45:45.017Z,13.34
2023-01-01T01:48:52.400Z,13.29
2023-01-01T01:51:58.047Z,13.25
2023-01-01T01:55:02.578Z,13.22
2023-01-01T01:58:06.773Z,13.18
2023-01-01T02:01:10.013Z,13.15
2023-01-01T02:04:18.063Z,13.07
2023-01-01T02:07:22.947Z,13.00
2023-01-01T02:10:34.130Z,12.97
2023-01-01T02:13:36.798Z,12.93
2023-01-01T02:16:47.576Z,12.98
2023-01-01T02:20:09.705Z,12.92
2023-01-01T02:23:44.706Z,12.93
2023-01-01T02:27:02.236Z,12.92
2023-01-01T02:30:12.275Z,12.94
2023-01-01T02:33:19.657Z,12.96
2023-01-01T02:36:31.116Z,12.92
2023-01-01T02:39:36.221Z,12.91
2023-01-01T02:42:39.083Z,12.92
2023-01-01T02:45:43.354Z,12.91
2023-01-01T02:48:48.001Z,12.85
2023-01-01T02:52:12.916Z,12.79
2023-01-01T02:55:28.724Z,12.74
2023-01-01T02:58:58.348Z,12.73
2023-01-01T03:02:10.864Z,12.80
2023-01-01T03:05:22.061Z,12.82
2023-01-01T03:08:42.013Z,12.85
2023-01-01T03:11:51.820Z,12.91
2023-01-01T03:15:02.168Z,12.95
2023-01-01T03:18:09.396Z,13.07
2023-01-01T03:24:27.098Z,13.16
2023-01-01T03:27:37.688Z,13.15
2023-01-01T03:30:42.829Z,13.13
2023-01-01T03:34:01.064Z,13.07
2023-01-01T03:37:16.868Z,13.04
2023-01-01T03:40:22.196Z,13.08
2023-01-01T03:43:40.681Z,13.09
2023-01-01T03:46:43.513Z,13.05
2023-01-01T03:49:48.301Z,13.02
2023-01-01T03:52:58.535Z,12.90
2023-01-01T03:56:09.278Z,12.82
2023-01-01T03:59:18.692Z,12.78
2023-01-01T04:02:34.045Z,12.76
2023-01-01T04:05:41.727Z,12.80
2023-01-01T04:08:44.438Z,12.79
2023-01-01T04:12:07.444Z,12.78
2023-01-01T04:15:10.745Z,12.76
2023-01-01T04:18:13.393Z,12.73
2023-01-01T04:21:23.420Z,12.71
2023-01-01T04:24:26.973Z,12.66
2023-01-01T04:27:29.783Z,12.61
2023-01-01T04:30:32.757Z,12.63
2023-01-01T04:33:37.935Z,12.68
2023-01-01T04:36:44.535Z,12.71
2023-01-01T04:39:47.275Z,12.70
2023-01-01T04:43:05.316Z,12.67
2023-01-01T04:46:08.039Z,12.70
2023-01-01T04:49:13.747Z,12.70
2023-01-01T04:52:17.755Z,12.73
2023-01-01T04:55:23.462Z,12.73
2023-01-01T04:58:26.106Z,12.76
2023-01-01T05:01:30.183Z,12.86
2023-01-01T05:04:33.385Z,12.99
2023-01-01T05:07:40.468Z,13.08
2023-01-01T05:10:43.842Z,13.21
2023-01-01T05:13:49.450Z,13.28
2023-01-01T05:16:57.960Z,13.35
2023-01-01T05:20:03.832Z,13.35
2023-01-01T05:23:09.161Z,13.43
2023-01-01T05:26:12.877Z,13.45
2023-01-01T05:29:17.243Z,13.49
2023-01-01T05:32:26.219Z,13.50
2023-01-01T05:35:28.894Z,13.51
2023-01-01T05:38:36.237Z,13.54
2023-01-01T05:41:41.247Z,13.57
2023-01-01T05:44:43.875Z,13.67
2023-01-01T05:47:46.894Z,13.70
2023-01-01T05:50:49.552Z,13.76
2023-01-01T05:53:54.794Z,13.74
2023-01-01T05:57:05.848Z,13.73
2023-01-01T06:00:16.879Z,13.74
2023-01-01T06:03:19.734Z,13.76
2023-01-01T06:06:25.017Z,13.79
2023-01-01T06:09:34.501Z,13.83
2023-01-01T06:12:41.780Z,13.89
2023-01-01T06:15:44.986Z,13.88
2023-01-01T06:18:47.731Z,13.86
2023-01-01T06:21:50.482Z,13.83
2023-01-01T06:24:54.436Z,13.77
2023-01-01T06:28:00.202Z,13.75
2023-01-01T06:31:04.147Z,13.74
2023-01-01T06:34:10.164Z,13.72
2023-01-01T06:37:12.776Z,13.66
2023-01-01T06:40:16.889Z,13.65
2023-01-01T06:43:19.531Z,13.67
2023-01-01T06:46:26.906Z,13.64
2023-01-01T06:49:31.851Z,13.63
2023-01-01T06:52:37.520Z,13.63
2023-01-01T06:55:54.936Z,13.63
2023-01-01T06:59:02.555Z,13.59
2023-01-01T07:02:05.349Z,13.63
2023-01-01T07:05:08.967Z,13.65
2023-01-01T07:08:18.410Z,13.61
2023-01-01T07:11:22.777Z,13.58
2023-01-01T07:14:25.456Z,13.58
2023-01-01T07:17:28.307Z,13.60
2023-01-01T07:20:30.998Z,13.55
2023-01-01T07:23:36.163Z,13.47
2023-01-01T07:26:41.051Z,13.39
2023-01-01T07:29:46.121Z,13.35
2023-01-01T07:32:48.763Z,13.31
2023-01-01T07:35:51.531Z,13.32
2023-01-01T07:38:54.195Z,13.28
2023-01-01T07:41:58.086Z,13.24
2023-01-01T07:45:08.307Z,13.18
2023-01-01T07:48:15.545Z,13.17
2023-01-01T07:51:18.266Z,13.13
2023-01-01T07:54:20.913Z,13.11
2023-01-01T07:57:24.870Z,13.08
2023-01-01T08:00:30.100Z,13.06
2023-01-01T08:03:32.823Z,13.05
2023-01-01T08:06:38.588Z,13.03
2023-01-01T08:09:41.568Z,13.06
2023-01-01T08:12:45.512Z,13.10
2023-01-01T08:15:48.166Z,13.15
2023-01-01T08:18:53.965Z,13.16
2023-01-01T08:21:56.983Z,13.19
2023-01-01T08:24:59.653Z,13.19
2023-01-01T08:28:03.661Z,13.23
2023-01-01T08:31:06.666Z,13.29
2023-01-01T08:34:09.420Z,13.40
2023-01-01T08:37:14.502Z,13.46
2023-01-01T08:40:17.124Z,13.50
2023-01-01T08:43:21.159Z,13.54
2023-01-01T08:46:23.907Z,13.61
2023-01-01T08:49:27.620Z,13.63
2023-01-01T08:52:30.364Z,13.69
2023-01-01T08:55:38.284Z,13.77
2023-01-01T08:58:43.119Z,13.81
2023-01-01T09:01:49.026Z,13.85
2023-01-01T09:04:53.980Z,13.92
2023-01-01T09:07:56.669Z,13.98
2023-01-01T09:11:00.570Z,14.03
2023-01-01T09:14:20.018Z,14.04
2023-01-01T09:17:22.694Z,14.06
2023-01-01T09:20:28.829Z,14.10
2023-01-01T09:23:31.494Z,14.14
2023-01-01T09:26:34.370Z,14.19
2023-01-01T09:29:38.313Z,14.21
2023-01-01T09:32:41.041Z,14.28
2023-01-01T09:35:44.504Z,14.10
2023-01-01T09:38:52.455Z,14.40
2023-01-01T09:42:10.956Z,14.49
2023-01-01T09:45:23.340Z,14.54
2023-01-01T09:48:27.430Z,14.62
2023-01-01T09:51:34.802Z,14.68
2023-01-01T09:54:40.879Z,14.74
2023-01-01T09:57:43.681Z,14.79
2023-01-01T10:00:53.710Z,14.83
2023-01-01T10:04:08.363Z,14.98
2023-01-01T10:07:19.162Z,15.04
2023-01-01T10:10:33.471Z,15.20
2023-01-01T10:13:40.728Z,15.35
2023-01-01T10:16:48.186Z,15.40
2023-01-01T10:19:53.235Z,15.42
2023-01-01T10:23:00.752Z,15.44
2023-01-01T10:26:09.551Z,15.48
2023-01-01T10:29:17.659Z,15.52
2023-01-01T10:32:27.724Z,15.55
2023-01-01T10:35:42.843Z,15.59
2023-01-01T10:38:45.981Z,15.60
2023-01-01T10:41:49.225Z,15.60
2023-01-01T10:44:53.578Z,15.62
2023-01-01T10:48:15.166Z,15.60
2023-01-01T10:51:20.440Z,15.65
2023-01-01T10:54:32.660Z,15.49
2023-01-01T10:57:40.389Z,15.77
2023-01-01T11:00:43.238Z,15.80
2023-01-01T11:04:01.538Z,15.92
2023-01-01T11:07:08.266Z,16.01
2023-01-01T11:10:18.713Z,16.11
2023-01-01T11:13:22.660Z,16.25
2023-01-01T11:16:26.728Z,16.36
2023-01-01T11:19:33.637Z,16.44
2023-01-01T11:22:39.349Z,16.55
2023-01-01T11:25:58.158Z,16.64
2023-01-01T11:29:03.439Z,16.70
2023-01-01T11:32:08.879Z,16.72
2023-01-01T11:35:20.219Z,16.72
2023-01-01T11:38:29.898Z,16.74
2023-01-01T11:41:43.201Z,16.76
2023-01-01T11:44:48.693Z,16.76
2023-01-01T11:47:56.657Z,16.76
2023-01-01T11:51:03.637Z,16.70
2023-01-01T11:54:13.143Z,16.74
2023-01-01T11:57:23.092Z,16.70
2023-01-01T12:00:25.980Z,16.66
2023-01-01T12:03:34.331Z,16.58
2023-01-01T12:06:46.329Z,16.37
2023-01-01T12:09:57.533Z,16.45
2023-01-01T12:13:05.609Z,16.39
2023-01-01T12:16:13.632Z,16.35
2023-01-01T12:19:23.631Z,16.31
2023-01-01T12:22:27.960Z,16.33
2023-01-01T12:25:37.224Z,16.31
2023-01-01T12:28:49.138Z,16.32
2023-01-01T12:32:04.476Z,16.31
2023-01-01T12:35:23.745Z,16.29
2023-01-01T12:38:43.224Z,16.28
2023-01-01T12:41:55.021Z,16.29
2023-01-01T12:45:14.485Z,16.28
2023-01-01T12:48:34.822Z,16.30
2023-01-01T12:51:48.295Z,16.31
2023-01-01T12:55:35.679Z,16.28
2023-01-01T12:58:44.835Z,16.26
2023-01-01T13:01:49.228Z,16.24
2023-01-01T13:04:56.324Z,16.18
2023-01-01T13:08:04.244Z,16.14
2023-01-01T13:11:08.803Z,16.11
2023-01-01T13:14:13.282Z,16.08
2023-01-01T13:17:21.648Z,16.06
2023-01-01T13:20:26.560Z,16.05
2023-01-01T13:24:03.841Z,16.04
2023-01-01T13:27:11.257Z,16.03
2023-01-01T13:30:47.747Z,16.03
2023-01-01T13:34:20.327Z,16.04
2023-01-01T13:37:45.168Z,16.06
2023-01-01T13:40:52.695Z,16.08
2023-01-01T13:44:13.809Z,16.08
2023-01-01T13:47:34.274Z,16.06
2023-01-01T13:50:46.205Z,16.07
2023-01-01T13:54:08.215Z,16.04
2023-01-01T13:57:32.776Z,16.03
2023-01-01T14:00:46.542Z,16.01
2023-01-01T14:03:57.471Z,16.00
2023-01-01T14:07:32.869Z,15.98
2023-01-01T14:10:33.217Z,15.95
2023-01-01T14:13:41.829Z,15.92
2023-01-01T14:16:44.588Z,15.88
2023-01-01T14:19:48.739Z,15.87
2023-01-01T14:22:53.707Z,15.83
2023-01-01T14:25:56.530Z,15.84
2023-01-01T14:29:01.125Z,15.81
2023-01-01T14:32:14.964Z,15.76
2023-01-01T14:35:19.033Z,15.73
2023-01-01T14:38:27.157Z,15.70
2023-01-01T14:41:32.289Z,15.69
2023-01-01T14:44:37.616Z,15.65
2023-01-01T14:47:40.324Z,15.63
2023-01-01T14:50:49.069Z,15.60
2023-01-01T14:53:53.978Z,15.58
2023-01-01T14:56:56.854Z,15.58
2023-01-01T14:59:59.784Z,15.54
2023-01-01T15:03:13.908Z,15.49
2023-01-01T15:06:18.759Z,15.46
2023-01-01T15:09:21.554Z,15.22
2023-01-01T15:12:24.886Z,15.42
2023-01-01T15:15:42.516Z,15.35
2023-01-01T15:18:46.998Z,15.31
2023-01-01T15:21:51.088Z,15.29
2023-01-01T15:24:54.903Z,15.23
2023-01-01T15:27:58.025Z,15.14
2023-01-01T15:31:00.960Z,15.09
2023-01-01T15:34:04.871Z,14.99
2023-01-01T15:37:15.718Z,14.94
2023-01-01T15:40:40.539Z,14.85
2023-01-01T15:43:43.208Z,14.81
2023-01-01T15:46:48.348Z,14.78
2023-01-01T15:49:51.087Z,14.72
2023-01-01T15:52:59.076Z,14.68
2023-01-01T15:56:04.864Z,14.64
2023-01-01T15:59:22.995Z,14.58
2023-01-01T16:02:31.234Z,14.55
2023-01-01T16:05:34.061Z,14.56
2023-01-01T16:08:38.314Z,14.33
2023-01-01T16:11:41.139Z,14.43
2023-01-01T16:14:43.831Z,14.31
2023-01-01T16:17:47.249Z,14.07
2023-01-01T16:20:50.059Z,13.94
2023-01-01T16:23:54.466Z,13.84
2023-01-01T16:26:57.370Z,13.73
2023-01-01T16:30:00.148Z,13.72
2023-01-01T16:33:16.446Z,13.64
2023-01-01T16:36:19.226Z,13.53
2023-01-01T16:39:23.362Z,13.52
2023-01-01T16:42:27.293Z,13.54
2023-01-01T16:45:29.983Z,13.57
2023-01-01T16:48:32.612Z,13.59
2023-01-01T16:51:35.564Z,13.56
2023-01-01T16:54:40.215Z,13.58
2023-01-01T16:57:43.478Z,13.45
2023-01-01T17:00:47.390Z,13.46
2023-01-01T17:03:50.655Z,13.41
2023-01-01T17:06:53.967Z,13.29
2023-01-01T17:09:58.132Z,13.29
2023-01-01T17:13:02.923Z,13.28
2023-01-01T17:16:06.220Z,13.14
2023-01-01T17:19:15.073Z,13.07
2023-01-01T17:22:21.272Z,13.13
2023-01-01T17:25:25.378Z,13.06
2023-01-01T17:28:28.168Z,12.95
2023-01-01T17:31:31.227Z,12.86
2023-01-01T17:34:33.979Z,12.82
2023-01-01T17:37:39.884Z,12.74
2023-01-01T17:40:46.247Z,12.52
2023-01-01T17:43:50.677Z,12.47
2023-01-01T17:46:55.298Z,12.34
2023-01-01T17:49:58.013Z,12.20
2023-01-01T17:53:00.717Z,12.08
2023-01-01T17:56:05.572Z,11.98
2023-01-01T17:59:09.392Z,11.93
2023-01-01T18:02:13.275Z,11.77
2023-01-01T18:05:15.991Z,11.78
2023-01-01T18:08:28.047Z,11.68
2023-01-01T18:11:33.884Z,11.58
2023-01-01T18:14:38.867Z,11.56
2023-01-01T18:17:41.509Z,11.52
2023-01-01T18:20:46.413Z,11.43
2023-01-01T18:23:50.423Z,11.48
2023-01-01T18:26:57.148Z,11.42
2023-01-01T18:30:02.612Z,11.46
2023-01-01T18:33:06.033Z,11.54
2023-01-01T18:36:10.406Z,11.58
2023-01-01T18:39:16.881Z,11.63
2023-01-01T18:42:35.572Z,11.65
2023-01-01T18:45:39.075Z,11.69
2023-01-01T18:48:43.052Z,11.69
2023-01-01T18:51:48.941Z,11.74
2023-01-01T18:55:12.909Z,11.78
2023-01-01T18:58:19.900Z,11.70
2023-01-01T19:01:24.452Z,11.79
2023-01-01T19:04:27.365Z,11.82
2023-01-01T19:07:37.391Z,11.83
2023-01-01T19:10:41.758Z,11.69
2023-01-01T19:13:45.957Z,11.73
2023-01-01T19:16:50.282Z,11.90
2023-01-01T19:19:53.371Z,11.80
2023-01-01T19:22:57.539Z,11.76
2023-01-01T19:26:03.932Z,11.76
2023-01-01T19:29:13.987Z,11.80
2023-01-01T19:32:17.106Z,11.74
2023-01-01T19:35:19.931Z,11.74
2023-01-01T19:38:23.030Z,11.55
2023-01-01T19:41:26.064Z,11.56
2023-01-01T19:44:32.519Z,11.41
2023-01-01T19:47:38.200Z,11.35
2023-01-01T19:50:40.876Z,11.29
2023-01-01T19:53:43.580Z,11.15
2023-01-01T19:56:47.396Z,11.05
2023-01-01T19:59:51.450Z,11.04
2023-01-01T20:02:54.753Z,11.01
2023-01-01T20:05:57.827Z,10.96
2023-01-01T20:09:00.501Z,10.89
2023-01-01T20:12:03.884Z,10.85
2023-01-01T20:15:09.012Z,10.67
2023-01-01T20:18:12.117Z,10.67
2023-01-01T20:21:32.313Z,10.67
2023-01-01T20:24:35.015Z,10.57
2023-01-01T20:27:58.215Z,10.61
2023-01-01T20:31:02.255Z,10.59
2023-01-01T20:34:04.897Z,10.65
2023-01-01T20:37:25.144Z,10.82
2023-01-01T20:40:27.761Z,10.94
2023-01-01T20:43:30.572Z,10.92
2023-01-01T20:46:36.052Z,10.91
2023-01-01T20:49:39.041Z,10.79
2023-01-01T20:52:41.673Z,10.61
2023-01-01T20:55:44.483Z,10.47
2023-01-01T20:58:50.168Z,10.50
2023-01-01T21:01:56.353Z,10.52
2023-01-01T21:04:59.082Z,10.59
2023-01-01T21:08:02.158Z,10.63
2023-01-01T21:11:05.266Z,10.61
2023-01-01T21:14:07.973Z,10.67
2023-01-01T21:17:22.045Z,10.46
2023-01-01T21:20:26.747Z,10.56
2023-01-01T21:23:30.908Z,10.44
2023-01-01T21:26:36.981Z,10.43
2023-01-01T21:29:44.967Z,10.55
2023-01-01T21:32:50.658Z,10.58
2023-01-01T21:35:53.507Z,10.66
2023-01-01T21:38:57.441Z,10.62
2023-01-01T21:42:10.348Z,10.60
2023-01-01T21:45:19.974Z,10.64
2023-01-01T21:48:29.835Z,10.63
2023-01-01T21:51:34.354Z,10.46
2023-01-01T21:54:39.505Z,10.41
2023-01-01T21:57:42.465Z,10.46
2023-01-01T22:00:45.179Z,10.41
2023-01-01T22:03:59.179Z,10.34
2023-01-01T22:07:30.783Z,10.29
2023-01-01T22:10:35.239Z,10.20
2023-01-01T22:13:37.938Z,10.16
2023-01-01T22:16:40.723Z,10.18
2023-01-01T22:19:46.130Z,10.04
2023-01-01T22:22:49.281Z,9.98
2023-01-01T22:25:53.323Z,9.97
2023-01-01T22:29:00.889Z,9.86
2023-01-01T22:32:13.724Z,9.92
2023-01-01T22:35:26.768Z,10.08
2023-01-01T22:38:33.946Z,10.05
2023-01-01T22:41:36.630Z,10.12
2023-01-01T22:44:39.361Z,10.05
2023-01-01T22:47:44.600Z,10.12
2023-01-01T22:50:49.377Z,10.12
2023-01-01T22:53:51.987Z,10.10
2023-01-01T22:56:54.639Z,10.10
2023-01-01T23:00:04.234Z,10.06
2023-01-01T23:03:09.119Z,10.04
2023-01-01T23:06:13.683Z,9.95
2023-01-01T23:09:16.515Z,10.01
2023-01-01T23:12:19.179Z,10.04
2023-01-01T23:15:39.296Z,10.06
2023-01-01T23:18:42.066Z,10.13
2023-01-01T23:21:46.571Z,10.05
2023-01-01T23:24:52.072Z,10.08
2023-01-01T23:27:55.647Z,10.08
2023-01-01T23:30:59.628Z,10.05
2023-01-01T23:34:02.679Z,9.98
2023-01-01T23:37:06.836Z,10.05
2023-01-01T23:40:12.825Z,9.96
2023-01-01T23:43:15.506Z,9.90
2023-01-01T23:46:19.632Z,9.91
2023-01-01T23:49:23.361Z,9.94
2023-01-01T23:52:27.573Z,9.97
2023-01-01T23:55:30.209Z,9.96
2023-01-01T23:58:32.875Z,10.03
